createdAt,value
2023-03-08T00:00:21.164Z,2.70
2023-03-08T00:02:50.216Z,1.83
2023-03-08T00:05:21.484Z,0.95
2023-03-08T00:07:50.614Z,1.85
2023-03-08T00:10:20.686Z,2.92
2023-03-08T00:12:49.904Z,2.60
2023-03-08T00:15:20.031Z,2.20
2023-03-08T00:17:49.216Z,1.52
2023-03-08T00:20:18.271Z,0.90
2023-03-08T00:22:49.347Z,1.70
2023-03-08T00:25:18.523Z,1.02
2023-03-08T00:27:47.611Z,2.40
2023-03-08T00:30:17.112Z,2.35
2023-03-08T00:32:46.330Z,1.65
2023-03-08T00:35:15.647Z,1.98
2023-03-08T00:37:49.289Z,0.75
2023-03-08T00:40:18.957Z,0.90
2023-03-08T00:42:47.985Z,0.80
2023-03-08T00:45:17.246Z,0.95
2023-03-08T00:47:46.495Z,1.38
2023-03-08T00:50:15.648Z,1.52
2023-03-08T00:52:49.283Z,0.28
2023-03-08T00:55:18.415Z,2.92
2023-03-08T00:57:49.226Z,1.45
2023-03-08T01:00:19.299Z,2.22
2023-03-08T01:02:48.509Z,2.67
2023-03-08T01:05:17.514Z,1.88
2023-03-08T01:07:46.570Z,1.02
2023-03-08T01:10:17.449Z,2.08
2023-03-08T01:12:46.442Z,0.40
2023-03-08T01:15:16.304Z,1.90
2023-03-08T01:17:45.316Z,0.73
2023-03-08T01:20:14.943Z,1.27
2023-03-08T01:22:43.920Z,2.45
2023-03-08T01:25:13.410Z,1.50
2023-03-08T01:27:44.076Z,1.33
2023-03-08T01:30:13.850Z,2.50
2023-03-08T01:32:43.631Z,2.83
2023-03-08T01:35:12.928Z,2.47
2023-03-08T01:37:42.613Z,1.52
2023-03-08T01:40:18.702Z,1.27
2023-03-08T01:42:49.308Z,0.40
2023-03-08T01:45:54.089Z,0.55
2023-03-08T01:48:31.963Z,0.47
2023-03-08T01:51:06.423Z,0.20
2023-03-08T01:53:38.970Z,0.25
2023-03-08T01:56:10.666Z,0.47
2023-03-08T01:58:43.433Z,0.98
2023-03-08T02:01:13.044Z,0.13
2023-03-08T02:03:42.432Z,0.73
2023-03-08T02:06:12.300Z,0.82
2023-03-08T02:08:42.632Z,0.85
2023-03-08T02:11:15.608Z,1.52
2023-03-08T02:13:46.588Z,0.45
2023-03-08T02:16:18.070Z,0.52
2023-03-08T02:18:55.735Z,0.63
2023-03-08T02:21:26.440Z,1.58
2023-03-08T02:23:57.126Z,0.82
2023-03-08T02:26:26.976Z,1.75
2023-03-08T02:28:56.508Z,0.73
2023-03-08T02:31:25.617Z,0.98
2023-03-08T02:33:54.850Z,2.03
2023-03-08T02:36:23.898Z,1.50
2023-03-08T02:38:53.022Z,0.65
2023-03-08T02:41:23.661Z,1.42
2023-03-08T02:43:52.862Z,0.30
2023-03-08T02:46:21.880Z,1.80
2023-03-08T02:48:53.075Z,0.52
2023-03-08T02:51:23.548Z,1.05
2023-03-08T02:53:52.683Z,0.75
2023-03-08T02:56:23.316Z,1.48
2023-03-08T02:58:55.558Z,1.70
2023-03-08T03:01:26.224Z,1.70
2023-03-08T03:03:56.626Z,1.08
2023-03-08T03:06:25.830Z,1.23
2023-03-08T03:08:58.055Z,1.90
2023-03-08T03:11:29.697Z,3.25
2023-03-08T03:14:00.532Z,1.75
2023-03-08T03:16:35.770Z,2.30
2023-03-08T03:19:05.051Z,2.00
2023-03-08T03:21:34.560Z,2.40
2023-03-08T03:24:03.705Z,0.88
2023-03-08T03:26:42.637Z,1.98
2023-03-08T03:29:12.209Z,1.25
2023-03-08T03:31:44.665Z,2.08
2023-03-08T03:34:14.777Z,1.15
2023-03-08T03:36:46.445Z,1.55
2023-03-08T03:39:16.370Z,2.40
2023-03-08T03:41:49.154Z,1.67
2023-03-08T03:44:19.333Z,1.35
2023-03-08T03:46:50.952Z,1.00
2023-03-08T03:49:25.628Z,1.10
2023-03-08T03:51:54.819Z,0.65
2023-03-08T03:54:33.708Z,2.78
2023-03-08T03:57:04.287Z,1.25
2023-03-08T03:59:38.578Z,1.15
2023-03-08T04:02:08.803Z,0.57
2023-03-08T04:04:46.421Z,1.30
2023-03-08T04:07:18.374Z,0.60
2023-03-08T04:09:56.664Z,2.05
2023-03-08T04:12:27.513Z,1.75
2023-03-08T04:14:57.980Z,1.15
2023-03-08T04:17:33.636Z,0.77
2023-03-08T04:20:04.576Z,1.65
2023-03-08T04:22:38.288Z,1.60
2023-03-08T04:25:18.444Z,1.55
2023-03-08T04:27:56.580Z,1.60
2023-03-08T04:30:25.995Z,1.42
2023-03-08T04:32:57.243Z,1.88
2023-03-08T04:35:33.278Z,1.23
2023-03-08T04:38:03.042Z,1.58
2023-03-08T04:40:32.478Z,0.85
2023-03-08T04:43:07.080Z,1.02
2023-03-08T04:45:40.373Z,1.45
2023-03-08T04:48:15.379Z,1.33
2023-03-08T04:50:45.582Z,1.00
2023-03-08T04:53:15.619Z,0.63
2023-03-08T04:55:44.926Z,1.13
2023-03-08T04:58:15.528Z,1.35
2023-03-08T05:00:44.794Z,1.83
2023-03-08T05:03:14.244Z,0.38
2023-03-08T05:05:48.506Z,0.63
2023-03-08T05:08:18.425Z,1.55
2023-03-08T05:10:51.695Z,2.22
2023-03-08T05:13:22.590Z,1.35
2023-03-08T05:15:52.379Z,0.50
2023-03-08T05:18:21.785Z,0.38
2023-03-08T05:20:56.565Z,0.80
2023-03-08T05:23:28.506Z,1.65
2023-03-08T05:26:00.232Z,0.25
2023-03-08T05:28:33.121Z,2.55
2023-03-08T05:31:03.516Z,1.23
2023-03-08T05:33:34.453Z,1.95
2023-03-08T05:36:04.069Z,0.50
2023-03-08T05:38:33.978Z,2.63
2023-03-08T05:41:08.942Z,0.60
2023-03-08T05:43:40.893Z,1.02
2023-03-08T05:46:14.480Z,1.92
2023-03-08T05:48:44.921Z,2.50
2023-03-08T05:51:17.734Z,2.55
2023-03-08T05:53:48.158Z,1.75
2023-03-08T05:56:21.110Z,0.95
2023-03-08T05:59:18.187Z,1.30
2023-03-08T06:01:49.200Z,0.63
2023-03-08T06:04:26.244Z,1.48
2023-03-08T06:06:56.705Z,1.00
2023-03-08T06:09:31.285Z,1.08
2023-03-08T06:12:01.320Z,0.60
2023-03-08T06:14:33.328Z,1.35
2023-03-08T06:17:03.478Z,1.52
2023-03-08T06:19:36.207Z,2.10
2023-03-08T06:22:05.237Z,2.85
2023-03-08T06:24:35.005Z,1.75
2023-03-08T06:27:08.044Z,1.20
2023-03-08T06:29:40.127Z,0.30
2023-03-08T06:32:09.706Z,1.90
2023-03-08T06:34:41.877Z,1.27
2023-03-08T06:37:11.062Z,1.73
2023-03-08T06:39:40.556Z,0.73
2023-03-08T06:42:09.810Z,1.15
2023-03-08T06:44:40.500Z,0.40
2023-03-08T06:47:09.765Z,0.30
2023-03-08T06:49:40.082Z,0.57
2023-03-08T06:52:09.410Z,0.98
2023-03-08T06:54:39.847Z,0.30
2023-03-08T06:57:08.964Z,1.05
2023-03-08T06:59:42.448Z,0.90
2023-03-08T07:02:12.225Z,0.73
2023-03-08T07:04:41.514Z,0.98
2023-03-08T07:07:10.689Z,1.17
2023-03-08T07:09:40.092Z,0.20
2023-03-08T07:12:09.788Z,0.70
2023-03-08T07:14:39.027Z,0.70
2023-03-08T07:17:09.590Z,1.45
2023-03-08T07:19:39.651Z,0.47
2023-03-08T07:22:13.141Z,0.60
2023-03-08T07:24:42.284Z,0.82
2023-03-08T07:27:13.697Z,0.90
2023-03-08T07:29:42.845Z,0.85
2023-03-08T07:32:13.477Z,1.33
2023-03-08T07:34:43.545Z,0.90
2023-03-08T07:37:14.002Z,0.57
2023-03-08T07:39:43.766Z,0.35
2023-03-08T07:42:13.565Z,0.63
2023-03-08T07:47:19.432Z,1.02
2023-03-08T07:49:49.172Z,0.75
2023-03-08T07:52:18.925Z,0.70
2023-03-08T07:54:48.224Z,0.22
2023-03-08T07:57:18.061Z,0.65
2023-03-08T07:59:47.950Z,0.30
2023-03-08T08:02:18.515Z,0.75
2023-03-08T08:04:47.918Z,0.43
2023-03-08T08:07:18.031Z,1.67
2023-03-08T08:09:47.933Z,0.73
2023-03-08T08:12:17.210Z,0.77
2023-03-08T08:14:46.514Z,0.88
2023-03-08T08:17:16.634Z,1.55
2023-03-08T08:19:48.073Z,0.55
2023-03-08T08:22:17.163Z,0.40
2023-03-08T08:24:46.324Z,0.68
2023-03-08T08:27:16.035Z,1.17
2023-03-08T08:29:46.442Z,0.93
2023-03-08T08:32:15.702Z,0.55
2023-03-08T08:34:45.011Z,0.17
2023-03-08T08:37:15.542Z,0.85
2023-03-08T08:39:44.636Z,0.45
2023-03-08T08:42:13.786Z,0.90
2023-03-08T08:44:42.965Z,0.70
2023-03-08T08:47:12.145Z,1.40
2023-03-08T08:49:41.843Z,1.85
2023-03-08T08:52:10.993Z,1.15
2023-03-08T08:54:41.777Z,0.65
2023-03-08T08:57:10.979Z,1.50
2023-03-08T08:59:40.324Z,0.68
2023-03-08T09:02:13.787Z,1.77
2023-03-08T09:04:43.035Z,1.48
2023-03-08T09:07:12.152Z,0.47
2023-03-08T09:09:42.753Z,1.00
2023-03-08T09:12:11.916Z,1.08
2023-03-08T09:14:40.988Z,1.00
2023-03-08T09:17:10.159Z,1.02
2023-03-08T09:19:41.280Z,1.55
2023-03-08T09:22:11.786Z,0.38
2023-03-08T09:24:42.404Z,0.77
2023-03-08T09:27:11.811Z,0.95
2023-03-08T09:29:41.053Z,1.90
2023-03-08T09:32:10.274Z,1.52
2023-03-08T09:34:39.695Z,2.25
2023-03-08T09:37:08.791Z,0.85
2023-03-08T09:39:38.828Z,0.50
2023-03-08T09:42:20.955Z,0.30
2023-03-08T09:45:00.042Z,0.65
2023-03-08T09:47:36.896Z,0.85
2023-03-08T09:50:17.686Z,1.83
2023-03-08T09:52:52.324Z,0.95
2023-03-08T09:55:30.662Z,0.88
2023-03-08T09:58:03.568Z,1.33
2023-03-08T10:00:35.876Z,0.30
2023-03-08T10:04:01.339Z,1.65
2023-03-08T10:06:37.474Z,0.65
2023-03-08T10:09:18.616Z,1.15
2023-03-08T10:11:55.754Z,1.63
2023-03-08T10:14:29.347Z,1.98
2023-03-08T10:17:01.214Z,0.93
2023-03-08T10:19:34.810Z,2.35
2023-03-08T10:22:11.003Z,1.77
2023-03-08T10:24:47.042Z,1.50
2023-03-08T10:27:22.026Z,1.10
2023-03-08T10:29:55.134Z,1.67
2023-03-08T10:32:25.504Z,2.30
2023-03-08T10:34:56.011Z,1.23
2023-03-08T10:37:33.042Z,1.35
2023-03-08T10:40:06.151Z,2.65
2023-03-08T10:45:16.443Z,0.22
2023-03-08T10:47:56.245Z,0.85
2023-03-08T10:50:27.927Z,1.33
2023-03-08T10:52:57.314Z,0.30
2023-03-08T10:55:31.697Z,0.60
2023-03-08T10:58:02.756Z,0.52
2023-03-08T11:00:38.600Z,0.40
2023-03-08T11:03:16.236Z,0.20
2023-03-08T11:05:56.757Z,0.95
2023-03-08T11:08:28.669Z,0.45
2023-03-08T11:11:06.563Z,0.38
2023-03-08T11:13:37.659Z,0.95
2023-03-08T11:16:35.811Z,0.10
2023-03-08T11:19:12.224Z,0.63
2023-03-08T11:21:52.631Z,0.30
2023-03-08T11:24:43.842Z,0.40
2023-03-08T11:27:25.700Z,0.38
2023-03-08T11:30:09.204Z,0.25
2023-03-08T11:32:53.332Z,0.35
2023-03-08T11:35:29.532Z,0.68
2023-03-08T11:38:05.119Z,0.50
2023-03-08T11:40:43.940Z,0.30
2023-03-08T11:43:26.878Z,0.30
2023-03-08T11:46:03.930Z,0.27
2023-03-08T11:49:11.121Z,0.25
2023-03-08T11:51:49.953Z,0.20
2023-03-08T11:54:31.032Z,0.57
2023-03-08T11:57:02.442Z,0.43
2023-03-08T11:59:35.573Z,0.38
2023-03-08T12:04:47.733Z,0.45
2023-03-08T12:07:23.727Z,0.63
2023-03-08T12:10:00.472Z,0.70
2023-03-08T12:12:33.406Z,0.40
2023-03-08T12:15:09.334Z,0.40
2023-03-08T12:17:45.845Z,2.25
2023-03-08T12:20:20.497Z,1.70
2023-03-08T12:22:56.226Z,0.50
2023-03-08T12:25:29.916Z,0.20
2023-03-08T12:28:06.553Z,0.47
2023-03-08T12:43:34.903Z,0.52
2023-03-08T12:48:37.875Z,0.45
2023-03-08T12:51:21.193Z,0.30
2023-03-08T12:56:32.576Z,0.20
2023-03-08T12:59:05.274Z,0.50
2023-03-08T13:01:40.331Z,0.73
2023-03-08T13:04:40.528Z,0.20
2023-03-08T13:07:28.573Z,0.75
2023-03-08T13:10:04.702Z,0.85
2023-03-08T13:12:43.637Z,0.30
2023-03-08T13:15:27.996Z,0.13
2023-03-08T13:18:06.382Z,0.77
2023-03-08T13:20:54.000Z,0.30
2023-03-08T13:23:29.507Z,0.82
2023-03-08T13:26:31.374Z,0.50
2023-03-08T13:29:12.770Z,0.20
2023-03-08T13:31:46.150Z,0.50
2023-03-08T13:34:31.015Z,1.13
2023-03-08T13:37:00.328Z,0.10
2023-03-08T13:39:30.683Z,0.35
2023-03-08T13:42:10.628Z,0.50
2023-03-08T13:44:40.175Z,0.88
2023-03-08T13:47:22.841Z,0.30
2023-03-08T13:49:53.522Z,0.25
2023-03-08T13:52:24.909Z,0.82
2023-03-08T13:54:56.647Z,0.40
2023-03-08T13:57:28.585Z,0.50
2023-03-08T13:59:59.975Z,0.85
2023-03-08T14:02:32.794Z,1.30
2023-03-08T14:05:01.896Z,1.02
2023-03-08T14:07:33.571Z,0.30
2023-03-08T14:10:02.654Z,0.45
2023-03-08T14:12:35.151Z,0.63
2023-03-08T14:15:06.502Z,0.50
2023-03-08T14:17:38.059Z,0.60
2023-03-08T14:20:20.470Z,0.25
2023-03-08T14:22:52.295Z,0.38
2023-03-08T14:25:28.369Z,0.50
2023-03-08T14:27:57.968Z,0.20
2023-03-08T14:30:28.492Z,0.47
2023-03-08T14:33:28.365Z,0.77
2023-03-08T14:36:06.487Z,0.40
2023-03-08T14:38:36.183Z,0.60
2023-03-08T14:41:07.596Z,0.40
2023-03-08T14:43:36.812Z,0.50
2023-03-08T14:46:07.871Z,1.08
2023-03-08T14:48:39.522Z,1.02
2023-03-08T14:51:27.379Z,0.57
2023-03-08T14:54:01.588Z,1.52
2023-03-08T14:56:32.029Z,3.05
2023-03-08T14:59:04.060Z,1.60
2023-03-08T15:01:35.811Z,3.50
2023-03-08T15:04:19.300Z,0.63
2023-03-08T15:06:49.181Z,5.90
2023-03-08T15:09:20.046Z,8.02
2023-03-08T15:11:52.403Z,7.07
2023-03-08T15:14:21.410Z,1.80
2023-03-08T15:16:51.359Z,5.03
2023-03-08T15:19:22.266Z,2.28
2023-03-08T15:21:51.548Z,1.67
2023-03-08T15:24:21.060Z,3.00
2023-03-08T15:26:53.258Z,0.82
2023-03-08T15:29:27.952Z,1.02
2023-03-08T15:31:57.729Z,0.35
2023-03-08T15:34:28.663Z,0.57
2023-03-08T15:37:00.888Z,1.08
2023-03-08T15:39:30.153Z,3.70
2023-03-08T15:42:00.105Z,1.40
2023-03-08T15:44:29.119Z,1.85
2023-03-08T15:47:01.896Z,1.55
2023-03-08T15:49:32.617Z,2.75
2023-03-08T15:52:01.659Z,3.10
2023-03-08T15:54:32.175Z,1.45
2023-03-08T15:57:01.193Z,0.57
2023-03-08T15:59:30.149Z,2.50
2023-03-08T16:01:59.444Z,2.35
2023-03-08T16:04:28.553Z,2.08
2023-03-08T16:06:59.179Z,0.75
2023-03-08T16:09:28.387Z,1.42
2023-03-08T16:11:57.325Z,2.40
2023-03-08T16:14:26.322Z,2.75
2023-03-08T16:16:55.394Z,2.50
2023-03-08T16:19:24.826Z,1.00
2023-03-08T16:21:54.017Z,1.38
2023-03-08T16:24:24.461Z,1.15
2023-03-08T16:26:53.578Z,1.08
2023-03-08T16:29:23.187Z,1.83
2023-03-08T16:31:52.295Z,2.30
2023-03-08T16:34:22.272Z,2.25
2023-03-08T16:36:51.385Z,1.58
2023-03-08T16:39:20.576Z,1.65
2023-03-08T16:41:51.312Z,3.00
2023-03-08T16:44:21.964Z,2.22
2023-03-08T16:46:51.442Z,1.63
2023-03-08T16:49:23.050Z,2.67
2023-03-08T16:51:52.058Z,3.03
2023-03-08T16:54:21.129Z,4.78
2023-03-08T16:56:52.121Z,3.45
2023-03-08T16:59:21.271Z,5.93
2023-03-08T17:01:50.438Z,6.28
2023-03-08T17:04:19.831Z,5.15
2023-03-08T17:06:49.131Z,3.60
2023-03-08T17:09:18.332Z,3.92
2023-03-08T17:11:50.348Z,7.40
2023-03-08T17:14:22.482Z,7.10
2023-03-08T17:16:52.135Z,4.55
2023-03-08T17:19:21.675Z,6.10
2023-03-08T17:21:51.481Z,8.43
2023-03-08T17:24:21.966Z,6.18
2023-03-08T17:26:53.257Z,9.40
2023-03-08T17:29:24.608Z,6.78
2023-03-08T17:31:54.894Z,2.95
2023-03-08T17:34:24.414Z,2.47
2023-03-08T17:36:53.795Z,0.98
2023-03-08T17:39:23.706Z,2.40
2023-03-08T17:41:52.817Z,1.40
2023-03-08T17:44:23.391Z,2.28
2023-03-08T17:46:52.652Z,1.52
2023-03-08T17:49:25.244Z,3.90
2023-03-08T17:51:55.217Z,1.40
2023-03-08T17:54:24.361Z,3.47
2023-03-08T17:56:53.620Z,9.85
2023-03-08T17:59:24.280Z,10.32
2023-03-08T18:01:53.389Z,2.67
2023-03-08T18:04:23.738Z,1.25
2023-03-08T18:06:52.858Z,1.00
2023-03-08T18:09:22.247Z,1.27
2023-03-08T18:11:51.625Z,0.90
2023-03-08T18:14:26.210Z,0.43
2023-03-08T18:17:05.731Z,2.85
2023-03-08T18:19:35.016Z,4.70
2023-03-08T18:22:05.372Z,2.22
2023-03-08T18:24:35.134Z,2.78
2023-03-08T18:27:05.965Z,3.40
2023-03-08T18:29:36.101Z,3.45
2023-03-08T18:32:08.942Z,3.20
2023-03-08T18:34:39.603Z,2.15
2023-03-08T18:37:09.116Z,1.10
2023-03-08T18:39:38.537Z,2.33
2023-03-08T18:42:08.072Z,2.15
2023-03-08T18:44:38.849Z,3.58
2023-03-08T18:47:10.418Z,3.20
2023-03-08T18:49:41.951Z,5.53
2023-03-08T18:52:11.948Z,2.78
2023-03-08T18:54:41.720Z,2.88
2023-03-08T18:57:10.908Z,3.50
2023-03-08T18:59:40.149Z,1.45
2023-03-08T19:02:12.803Z,1.48
2023-03-08T19:04:44.235Z,1.50
2023-03-08T19:07:14.402Z,3.20
2023-03-08T19:09:46.162Z,3.17
2023-03-08T19:12:16.004Z,1.65
2023-03-08T19:14:46.948Z,1.23
2023-03-08T19:17:17.686Z,2.30
2023-03-08T19:19:48.024Z,1.50
2023-03-08T19:22:17.396Z,0.98
2023-03-08T19:24:47.339Z,2.05
2023-03-08T19:27:16.473Z,1.40
2023-03-08T19:29:45.784Z,2.22
2023-03-08T19:32:16.240Z,1.98
2023-03-08T19:34:48.706Z,3.05
2023-03-08T19:37:18.069Z,1.17
2023-03-08T19:39:47.946Z,1.60
2023-03-08T19:42:18.046Z,3.33
2023-03-08T19:44:48.840Z,1.67
2023-03-08T19:47:20.367Z,1.08
2023-03-08T19:49:51.085Z,1.45
2023-03-08T19:52:20.200Z,1.70
2023-03-08T19:54:49.309Z,2.15
2023-03-08T19:57:18.470Z,1.13
2023-03-08T19:59:47.845Z,2.20
2023-03-08T20:02:16.986Z,1.23
2023-03-08T20:04:46.379Z,1.42
2023-03-08T20:07:16.849Z,2.40
2023-03-08T20:09:46.000Z,3.20
2023-03-08T20:12:15.048Z,2.20
2023-03-08T20:14:45.925Z,1.00
2023-03-08T20:17:15.031Z,1.90
2023-03-08T20:19:44.359Z,1.40
2023-03-08T20:22:13.462Z,1.70
2023-03-08T20:24:43.830Z,1.10
2023-03-08T20:27:12.802Z,0.80
2023-03-08T20:29:42.002Z,0.70
2023-03-08T20:32:11.147Z,1.80
2023-03-08T20:34:40.274Z,1.90
2023-03-08T20:37:09.498Z,1.67
2023-03-08T20:39:38.543Z,1.02
2023-03-08T20:42:09.106Z,1.70
2023-03-08T20:44:38.211Z,3.95
2023-03-08T20:47:07.596Z,2.67
2023-03-08T20:49:36.542Z,1.08
2023-03-08T20:52:06.974Z,1.73
2023-03-08T20:54:36.355Z,2.63
2023-03-08T20:57:06.138Z,5.93
2023-03-08T20:59:37.523Z,1.10
2023-03-08T21:02:06.880Z,1.27
2023-03-08T21:04:35.963Z,1.77
2023-03-08T21:07:07.420Z,1.85
2023-03-08T21:09:36.652Z,1.75
2023-03-08T21:12:09.337Z,1.65
2023-03-08T21:14:39.863Z,2.28
2023-03-08T21:17:09.060Z,2.25
2023-03-08T21:19:38.561Z,1.48
2023-03-08T21:22:07.660Z,2.40
2023-03-08T21:24:36.773Z,3.17
2023-03-08T21:27:05.930Z,2.83
2023-03-08T21:29:34.946Z,2.50
2023-03-08T21:32:05.748Z,1.10
2023-03-08T21:34:34.730Z,2.58
2023-03-08T21:37:03.763Z,1.50
2023-03-08T21:39:32.941Z,1.05
2023-03-08T21:42:01.882Z,1.05
2023-03-08T21:44:32.152Z,1.25
2023-03-08T21:47:01.348Z,0.55
2023-03-08T21:49:34.586Z,0.95
2023-03-08T21:52:04.780Z,0.60
2023-03-08T21:54:33.867Z,0.98
2023-03-08T21:57:02.968Z,1.77
2023-03-08T21:59:32.060Z,1.38
2023-03-08T22:02:01.181Z,1.05
2023-03-08T22:04:31.833Z,0.45
2023-03-08T22:07:01.053Z,2.05
2023-03-08T22:09:30.051Z,1.58
2023-03-08T22:11:59.591Z,0.90
2023-03-08T22:14:29.866Z,1.73
2023-03-08T22:17:00.875Z,0.70
2023-03-08T22:19:29.895Z,0.52
2023-03-08T22:22:01.081Z,2.17
2023-03-08T22:24:32.286Z,0.95
2023-03-08T22:27:03.539Z,1.52
2023-03-08T22:29:33.980Z,0.93
2023-03-08T22:32:03.005Z,0.25
2023-03-08T22:34:32.091Z,0.80
2023-03-08T22:37:02.656Z,0.90
2023-03-08T22:39:31.754Z,5.07
2023-03-08T22:42:01.003Z,1.35
2023-03-08T22:44:30.155Z,0.10
2023-03-08T22:46:59.286Z,1.25
2023-03-08T22:49:28.577Z,0.45
2023-03-08T22:51:57.650Z,0.40
2023-03-08T22:54:28.993Z,0.20
2023-03-08T22:56:58.257Z,0.60
2023-03-08T22:59:27.368Z,0.82
2023-03-08T23:01:56.769Z,0.57
2023-03-08T23:04:25.909Z,0.77
2023-03-08T23:06:54.991Z,0.20
2023-03-08T23:09:24.175Z,1.00
2023-03-08T23:11:54.640Z,0.98
2023-03-08T23:14:23.637Z,0.63
2023-03-08T23:16:53.136Z,1.10
2023-03-08T23:19:23.577Z,0.50
2023-03-08T23:21:52.770Z,0.40
2023-03-08T23:24:22.046Z,1.65
2023-03-08T23:26:51.168Z,1.73
2023-03-08T23:29:21.552Z,1.15
2023-03-08T23:31:50.593Z,2.42
2023-03-08T23:34:19.510Z,1.48
2023-03-08T23:36:48.481Z,1.27
2023-03-08T23:39:17.407Z,1.70
2023-03-08T23:41:46.628Z,0.75
2023-03-08T23:44:15.547Z,0.55
2023-03-08T23:46:46.830Z,1.60
2023-03-08T23:49:17.172Z,2.08
2023-03-08T23:51:46.956Z,0.30
2023-03-08T23:54:15.981Z,0.70
2023-03-08T23:56:45.242Z,0.50
2023-03-08T23:59:17.927Z,0.95
